• Join FlightAware (Why Join?)
  • Login
  • US Flag 
01:11PM EDT


 

Airport Tracker/Info


-or-


 

Live Flight TrackerFlight Track Log ✈ N42HN ✈ 05-Jul-2013 ✈ KTEB - KLZU

Flight Track Log - Related Links

Times and Time Zones

All times are in EDT time to prevent confusion due to time zone crossing. See the N42HN flight status page for this flight to view local times or setup timezone preferences in your user account.

Time Position Orientation Groundspeed Altitude Reporting Facility
EDT Latitude Longitude Course Direction KTS MPH feet Rate Location/Type
10:17AM 40.8125 -74.1819 217° Southwest 240 276 2,800  Level New York Center
10:18AM 40.8142 -74.2614 272° West 225 259 7,200 3,960 Climbing New York Center
10:19AM 40.8014 -74.3431 258° West 243 280 10,600 2,160 Climbing New York Center
10:20AM 40.7672 -74.4344 244° Southwest 269 310 11,600 1,140 Climbing New York Center
10:21AM 40.7258 -74.5636 247° West 327 376 13,000 1,620 Climbing New York Center
10:22AM 40.6244 -74.7756 217° Southwest  Level FlightAware Approximate
10:22AM 40.6819 -74.6897 245° Southwest 376 433 14,800  Level New York Center
10:23AM 40.6381 -74.8158 245° Southwest 376 433 16,200 1,140 Climbing New York Center
10:24AM 40.5967 -74.9336 245° Southwest 386 444 17,200 960 Climbing New York Center
10:25AM 40.5372 -75.0747 241° Southwest 398 458 18,100 960 Climbing New York Center
10:26AM 40.4644 -75.1819 228° Southwest 407 468 19,100 960 Climbing New York Center
10:27AM 40.3911 -75.3028 231° Southwest 413 475 20,100 900 Climbing New York Center
10:28AM 40.3158 -75.4175 229° Southwest 419 482 20,900 960 Climbing New York Center
10:29AM 40.2447 -75.5325 231° Southwest 419 482 22,100 1,140 Climbing New York Center
10:30AM 40.1778 -75.6367 230° Southwest 414 476 23,300 1,380 Climbing New York Center
10:31AM 40.1067 -75.7428 229° Southwest 414 476 24,900 1,440 Climbing New York Center
10:32AM 40.0353 -75.8517 229° Southwest 409 471 26,200 1,140 Climbing New York Center
10:33AM 39.9661 -75.9603 230° Southwest 404 465 27,200 1,200 Climbing New York Center
10:34AM 39.8944 -76.0661 229° Southwest 404 465 28,600 1,440 Climbing New York Center
10:35AM 39.8231 -76.1714 229° Southwest 398 458 30,100 1,320 Climbing New York Center
10:37AM 39.7114 -76.3414 230° Southwest 385 443 32,200 1,320 Climbing Washington Center
10:38AM 39.6378 -76.4458 228° Southwest 385 443 33,600 1,200 Climbing Washington Center
10:39AM 39.5597 -76.5633 229° Southwest 385 443 34,700 1,020 Climbing Washington Center
10:40AM 39.4922 -76.6644 229° Southwest 385 443 35,700 960 Climbing Washington Center
10:41AM 39.4225 -76.7708 230° Southwest 385 443 36,700 960 Climbing Washington Center
10:42AM 39.3506 -76.8717 227° Southwest 385 443 37,700 600 Climbing Washington Center
10:43AM 39.2828 -76.9753 230° Southwest 385 443 38,000 120 Climbing Washington Center
10:44AM 39.2106 -77.0808 229° Southwest 385 443 38,000  Level Washington Center
10:45AM 39.1383 -77.1839 228° Southwest 390 449 38,000  Level Washington Center
10:46AM 39.0661 -77.2892 229° Southwest 390 449 38,000  Level Washington Center
10:47AM 38.9958 -77.3917 229° Southwest 390 449 38,000  Level Washington Center
10:48AM 38.9256 -77.4914 228° Southwest 384 442 38,000  Level Washington Center
10:49AM 38.8572 -77.5908 229° Southwest 390 449 38,000  Level Washington Center
10:50AM 38.7781 -77.7033 228° Southwest 395 455 38,000  Level Washington Center
10:51AM 38.7075 -77.8078 229° Southwest 407 468 38,000  Level Washington Center
10:52AM 38.6367 -77.9092 228° Southwest 407 468 38,000  Level Washington Center
10:53AM 38.5617 -78.0183 229° Southwest 407 468 38,000  Level Washington Center
10:54AM 38.4864 -78.1275 229° Southwest 407 468 38,000  Level Washington Center
10:55AM 38.4089 -78.2361 228° Southwest 413 475 38,000  Level Washington Center
10:56AM 38.3336 -78.3444 228° Southwest 413 475 38,000  Level Washington Center
10:57AM 38.2558 -78.4553 228° Southwest 413 475 38,000  Level Washington Center
10:58AM 38.1739 -78.5736 229° Southwest 413 475 38,000  Level Washington Center
10:59AM 38.0936 -78.6867 228° Southwest 419 482 38,000  Level Washington Center
11:00AM 38.0136 -78.7967 227° Southwest 426 490 38,000  Level Washington Center
11:01AM 37.9314 -78.9092 227° Southwest 431 496 38,000  Level Washington Center
11:02AM 37.8597 -79.0139 229° Southwest 439 505 38,000  Level Washington Center
11:03AM 37.7750 -79.1228 225° Southwest 439 505 38,000  Level Washington Center
11:04AM 37.6881 -79.2475 229° Southwest 439 505 38,000  Level Washington Center
11:05AM 37.6117 -79.3486 226° Southwest 444 511 38,000  Level Washington Center
11:06AM 37.5225 -79.4700 227° Southwest 444 511 38,000  Level Washington Center
11:07AM 37.4569 -79.5608 228° Southwest 449 517 38,000  Level Washington Center
11:08AM 37.3586 -79.6864 225° Southwest 449 517 38,000  Level Washington Center
11:09AM 37.2733 -79.8044 228° Southwest 444 511 38,000  Level Washington Center
11:10AM 37.1242 -79.9989 226° Southwest 455 524 38,000  Level Atlanta Center
11:11AM 37.0422 -80.1072 227° Southwest 444 511 38,000  Level Atlanta Center
11:12AM 36.9703 -80.2042 227° Southwest 434 499 38,000  Level Atlanta Center
11:13AM 36.8900 -80.3119 227° Southwest 434 499 38,000  Level Atlanta Center
11:14AM 36.8078 -80.4194 226° Southwest 434 499 38,000  Level Atlanta Center
11:15AM 36.7194 -80.5375 227° Southwest 434 499 38,000  Level Atlanta Center
11:16AM 36.6469 -80.6311 226° Southwest 428 493 38,000  Level Atlanta Center
11:17AM 36.5644 -80.7406 227° Southwest 428 493 38,000  Level Atlanta Center
11:18AM 36.4861 -80.8444 227° Southwest 428 493 38,000  Level Atlanta Center
11:19AM 36.4011 -80.9539 226° Southwest 434 499 38,000  Level Atlanta Center
11:20AM 36.3122 -81.0681 226° Southwest 434 499 38,000  Level Atlanta Center
11:21AM 36.2333 -81.1764 228° Southwest 434 499 38,000 -600 Level Atlanta Center
11:22AM 36.1525 -81.2822 227° Southwest 428 493 36,900 -1,200 Descending Atlanta Center
11:23AM 36.0692 -81.3853 225° Southwest 428 493 35,700 -1,200 Descending Atlanta Center
11:24AM 35.9903 -81.4931 228° Southwest 433 498 34,500 -1,140 Descending Atlanta Center
11:25AM 35.9067 -81.5956 225° Southwest 433 498 33,500 -960 Descending Atlanta Center
11:26AM 35.8275 -81.7081 229° Southwest 433 498 32,600 -780 Descending Atlanta Center
11:27AM 35.7589 -81.8278 235° Southwest 433 498 32,000 -300 Descending Atlanta Center
11:28AM 35.6708 -81.9272 223° Southwest 433 498 32,000  Level Atlanta Center
11:29AM 35.5892 -82.0314 226° Southwest 428 493 32,000  Level Atlanta Center
11:30AM 35.5053 -82.1331 225° Southwest 428 493 32,000 -720 Level Atlanta Center
11:31AM 35.4214 -82.2369 225° Southwest 423 487 30,600 -1,800 Descending Atlanta Center
11:32AM 35.3372 -82.3406 225° Southwest 428 493 28,500 -2,220 Descending Atlanta Center
11:33AM 35.2550 -82.4389 224° Southwest 423 487 26,200 -1,920 Descending Atlanta Center
11:34AM 35.1811 -82.5294 225° Southwest 423 487 24,700 -1,260 Descending Atlanta Center
11:35AM 35.0967 -82.6300 224° Southwest 423 487 23,700 -1,320 Descending Atlanta Center
11:36AM 35.0186 -82.7225 224° Southwest 417 480 22,100 -1,740 Descending Atlanta Center
11:37AM 34.9361 -82.8200 224° Southwest 412 474 20,300 -1,800 Descending Atlanta Center
11:38AM 34.8578 -82.9175 226° Southwest 406 467 18,500 -1,500 Descending Atlanta Center
11:39AM 34.7814 -83.0094 225° Southwest 390 449 17,300 -1,440 Descending Atlanta Center
11:40AM 34.7047 -83.0964 223° Southwest 384 442 15,700 -1,500 Descending Atlanta Center
11:41AM 34.6367 -83.1856 227° Southwest 374 430 14,300 -1,500 Descending Atlanta Center
11:42AM 34.5661 -83.2694 224° Southwest 345 397 12,800 -1,680 Descending Atlanta Center
11:43AM 34.5081 -83.3381 224° Southwest 312 359 11,000 -1,860 Descending Atlanta Center
11:44AM 34.4564 -83.3989 224° Southwest 289 333 9,100 -1,860 Descending Atlanta Center
11:45AM 34.4003 -83.4622 223° Southwest 284 327 7,300 -1,080 Descending Atlanta Center
11:46AM 34.3506 -83.5231 225° Southwest 264 304 7,000 -420 Descending Atlanta Center
11:47AM 34.3047 -83.5836 228° Southwest 258 297 6,500 -540 Descending Atlanta Center
11:48AM 34.2569 -83.6392 224° Southwest 252 290 6,000 -300 Descending Atlanta Center
11:49AM 34.2069 -83.6997 225° Southwest 247 284 6,000  Level Atlanta Center
11:50AM 34.1675 -83.7650 234° Southwest 247 284 6,000  Level Atlanta Center
11:51AM 34.1447 -83.8331 248° West 247 284 6,000 -60 Level Atlanta Center
11:52AM 34.1219 -83.8958 246° West 233 268 5,900 -600 Descending Atlanta Center
11:53AM 34.0758 -83.9308 212° Southwest 199 229 4,900 -1,500 Descending Atlanta Center
11:54AM 34.0167 -83.9667 207° Southwest 186 214 2,900 -1,200 Descending Atlanta TRACON
11:56AM 34.0000 -84.0167 248° West 169 194 2,400 -600 Descending Atlanta TRACON
11:56AM 33.9667 -84.0000 157° South 137 158 1,700 -780 Descending Atlanta TRACON
11:58AM 33.9781 -83.9624 203° Southwest  Level Estimated
12:05PM 33.9781 -83.9624 203° Southwest  Level Estimated